Time;durP1;ratioP1;P1;durP2;ratioP2;P2;SDS_P1;SDS_P2;PMS_P1;PMS_P2;Temp;Humidity;BMP_temperature;BMP_pressure;BME280_temperature;BME280_humidity;BME280_pressure;Samples;Min_cycle;Max_cycle;Signal;HPM_P1;HPM_P2
2022/08/06 00:02:31;;;;;;;12.77;10.90;;;25.00;99.90;;;;;;5046486;28;20223;-73
2022/08/06 00:05:22;;;;;;;13.07;11.77;;;25.00;99.90;;;;;;5044653;28;20275;-71
2022/08/06 00:08:22;;;;;;;15.73;11.35;;;24.90;99.90;;;;;;5048425;28;20252;-72
2022/08/06 00:11:12;;;;;;;12.10;10.85;;;25.00;99.90;;;;;;5060060;28;20961;-73
2022/08/06 00:14:04;;;;;;;12.63;10.70;;;24.90;99.90;;;;;;5059327;28;20311;-76
2022/08/06 00:17:01;;;;;;;12.60;11.20;;;24.90;99.90;;;;;;5060342;28;20235;-75
2022/08/06 00:19:52;;;;;;;16.88;11.57;;;24.90;99.90;;;;;;5058335;28;20886;-75
2022/08/06 00:22:47;;;;;;;12.85;11.55;;;24.90;99.90;;;;;;5044690;28;20253;-75
2022/08/06 00:25:36;;;;;;;15.98;11.52;;;24.90;99.90;;;;;;5050787;28;20230;-74
2022/08/06 00:28:39;;;;;;;15.60;11.63;;;24.90;99.90;;;;;;5056552;28;20228;-74
2022/08/06 00:31:33;;;;;;;15.55;11.50;;;24.80;99.90;;;;;;5054252;28;20231;-72
2022/08/06 00:34:22;;;;;;;13.45;11.85;;;24.70;99.90;;;;;;5043894;28;20228;-75
2022/08/06 00:37:13;;;;;;;12.75;11.15;;;24.70;99.90;;;;;;5056827;28;20228;-74
2022/08/06 00:40:08;;;;;;;16.38;11.32;;;24.70;99.90;;;;;;5048279;28;20596;-74
2022/08/06 00:42:57;;;;;;;14.15;11.50;;;24.70;99.90;;;;;;5058024;28;20349;-73
2022/08/06 00:45:50;;;;;;;14.10;11.13;;;24.50;99.90;;;;;;5058226;28;20698;-74
2022/08/06 00:48:39;;;;;;;14.13;11.15;;;24.50;99.90;;;;;;5061087;28;20235;-73
2022/08/06 00:51:42;;;;;;;12.68;11.48;;;24.50;99.90;;;;;;5060176;28;20231;-73
2022/08/06 00:54:39;;;;;;;14.80;12.20;;;24.60;99.90;;;;;;5060743;28;20220;-73
2022/08/06 00:57:29;;;;;;;15.07;12.13;;;24.50;99.90;;;;;;5062185;28;20219;-74
2022/08/06 01:00:19;;;;;;;14.75;11.93;;;24.50;99.90;;;;;;5056029;28;20223;-74
2022/08/06 01:03:17;;;;;;;13.90;12.50;;;24.50;99.90;;;;;;5060455;28;20223;-74
2022/08/06 01:06:16;;;;;;;13.18;11.52;;;24.50;99.90;;;;;;5054988;28;20311;-75
2022/08/06 01:09:25;;;;;;;14.95;12.88;;;24.40;99.90;;;;;;5055750;28;20225;-74
2022/08/06 01:12:14;;;;;;;14.90;12.55;;;24.40;99.90;;;;;;5061680;28;20212;-75
2022/08/06 01:15:04;;;;;;;18.33;12.70;;;24.20;99.90;;;;;;5044038;28;20754;-75
2022/08/06 01:18:09;;;;;;;18.55;12.02;;;24.30;99.90;;;;;;5044129;28;20358;-75
2022/08/06 01:21:10;;;;;;;16.70;12.60;;;24.30;99.90;;;;;;5057695;28;20224;-74
2022/08/06 01:24:44;;;;;;;16.02;12.30;;;24.30;99.90;;;;;;5058820;28;20581;-73
2022/08/06 01:27:45;;;;;;;14.13;12.60;;;24.40;99.90;;;;;;5039193;28;20456;-74
2022/08/06 01:30:41;;;;;;;15.27;12.93;;;24.20;99.90;;;;;;5058764;28;20220;-73
2022/08/06 01:33:37;;;;;;;17.00;13.25;;;24.20;99.90;;;;;;5047348;28;20274;-74
2022/08/06 01:36:34;;;;;;;16.50;12.30;;;24.20;99.90;;;;;;5055434;28;20237;-74
2022/08/06 01:39:29;;;;;;;14.98;12.82;;;24.20;99.90;;;;;;5057629;28;20274;-74
2022/08/06 01:42:40;;;;;;;19.35;13.18;;;24.20;99.90;;;;;;5041836;28;20973;-74
2022/08/06 01:45:34;;;;;;;15.38;12.90;;;24.20;99.90;;;;;;5056322;28;20245;-74
2022/08/06 01:48:43;;;;;;;19.35;12.70;;;24.10;99.90;;;;;;5056836;28;20232;-74
2022/08/06 01:51:34;;;;;;;15.80;12.52;;;24.10;99.90;;;;;;5045834;28;21236;-73
2022/08/06 01:54:47;;;;;;;14.57;12.82;;;24.00;99.90;;;;;;5057514;28;20220;-72
2022/08/06 01:57:44;;;;;;;13.85;11.85;;;24.00;99.90;;;;;;5062061;28;20223;-72
2022/08/06 02:00:55;;;;;;;14.23;12.73;;;23.80;99.90;;;;;;5055880;28;20735;-73
2022/08/06 02:03:54;;;;;;;16.08;12.68;;;23.80;99.90;;;;;;5058036;28;20240;-74
2022/08/06 02:06:50;;;;;;;16.65;12.93;;;23.80;99.90;;;;;;5057204;28;20235;-74
2022/08/06 02:09:41;;;;;;;14.15;12.68;;;23.60;99.90;;;;;;5056656;28;20220;-73
2022/08/06 02:12:30;;;;;;;15.73;12.93;;;23.50;99.90;;;;;;5044857;28;20212;-73
2022/08/06 02:15:26;;;;;;;19.50;12.90;;;23.50;99.90;;;;;;5052576;28;20216;-73
2022/08/06 02:18:38;;;;;;;21.30;13.70;;;23.40;99.90;;;;;;5040531;28;20290;-75
2022/08/06 02:21:35;;;;;;;18.75;13.18;;;23.60;99.90;;;;;;5056554;28;20728;-73
2022/08/06 02:24:25;;;;;;;18.02;13.02;;;23.50;99.90;;;;;;5043585;28;20235;-74
2022/08/06 02:27:19;;;;;;;15.02;12.70;;;23.50;99.90;;;;;;5038362;28;20216;-74
2022/08/06 02:30:33;;;;;;;14.40;12.70;;;23.60;99.90;;;;;;5053164;28;20231;-75
2022/08/06 02:33:25;;;;;;;16.42;12.93;;;23.50;99.90;;;;;;5058946;28;20221;-74
2022/08/06 02:36:38;;;;;;;17.98;12.90;;;23.50;99.90;;;;;;5059566;28;20240;-74
2022/08/06 02:39:42;;;;;;;19.52;13.57;;;23.60;99.90;;;;;;5042014;28;21084;-74
2022/08/06 02:42:46;;;;;;;15.35;12.77;;;23.60;99.90;;;;;;5059333;28;20223;-73
2022/08/06 02:45:42;;;;;;;18.20;13.85;;;23.70;99.90;;;;;;5058075;28;20231;-74
2022/08/06 02:48:52;;;;;;;16.40;13.30;;;23.60;99.90;;;;;;5055973;28;20243;-74
2022/08/06 02:51:46;;;;;;;20.92;13.38;;;23.60;99.90;;;;;;5047590;28;20216;-76
2022/08/06 02:54:59;;;;;;;15.30;13.10;;;23.60;99.90;;;;;;5060244;28;20224;-75
2022/08/06 02:57:53;;;;;;;16.88;13.40;;;23.60;99.90;;;;;;5053157;28;20232;-75
2022/08/06 03:00:50;;;;;;;23.88;13.68;;;23.60;99.90;;;;;;5048700;28;20311;-75
2022/08/06 03:03:43;;;;;;;16.67;13.25;;;23.50;99.90;;;;;;5058516;28;20284;-75
2022/08/06 03:06:47;;;;;;;16.88;13.65;;;23.60;99.90;;;;;;5053316;28;20232;-75
2022/08/06 03:09:37;;;;;;;19.52;13.52;;;23.60;99.90;;;;;;5061088;28;20219;-75
2022/08/06 03:12:38;;;;;;;15.63;13.00;;;23.60;99.90;;;;;;5055972;28;20711;-75
2022/08/06 03:15:30;;;;;;;16.23;12.93;;;23.50;99.90;;;;;;5040162;28;20224;-75
2022/08/06 03:18:44;;;;;;;15.07;13.50;;;23.60;99.90;;;;;;5056833;28;20223;-73
2022/08/06 03:21:36;;;;;;;18.10;13.82;;;23.40;99.90;;;;;;5043039;28;20224;-75
2022/08/06 03:24:26;;;;;;;15.45;12.95;;;23.30;99.90;;;;;;5057689;28;20232;-73
2022/08/06 03:27:18;;;;;;;15.13;13.50;;;23.30;99.90;;;;;;5061026;28;20231;-75
2022/08/06 03:30:10;;;;;;;19.60;13.07;;;23.40;99.90;;;;;;5057202;28;20223;-76
2022/08/06 03:33:00;;;;;;;15.73;13.57;;;23.30;99.90;;;;;;5058931;28;21021;-76
2022/08/06 03:36:13;;;;;;;15.90;12.65;;;23.40;99.90;;;;;;5043927;28;20235;-74
2022/08/06 03:39:07;;;;;;;17.17;13.57;;;23.40;99.90;;;;;;5058204;28;20220;-74
2022/08/06 03:42:03;;;;;;;17.17;13.02;;;23.30;99.90;;;;;;5064956;28;20237;-74
2022/08/06 03:44:56;;;;;;;17.73;13.90;;;23.50;99.90;;;;;;5043137;28;20220;-72
2022/08/06 03:47:52;;;;;;;16.10;12.60;;;23.40;99.90;;;;;;5063596;28;20228;-72
2022/08/06 03:50:56;;;;;;;16.02;12.90;;;23.30;99.90;;;;;;5047417;28;20305;-71
2022/08/06 03:53:48;;;;;;;14.60;13.02;;;23.30;99.90;;;;;;5062397;28;20216;-72
2022/08/06 03:56:40;;;;;;;15.98;12.60;;;23.30;99.90;;;;;;5060860;28;20233;-72
2022/08/06 03:59:35;;;;;;;13.63;12.32;;;23.40;99.90;;;;;;5063998;28;20220;-73
2022/08/06 04:02:44;;;;;;;16.75;12.15;;;23.50;99.90;;;;;;5062117;28;20221;-71
2022/08/06 04:05:37;;;;;;;15.98;12.02;;;23.40;99.90;;;;;;5059869;28;20236;-73
2022/08/06 04:08:35;;;;;;;15.10;12.23;;;23.40;99.90;;;;;;5047239;28;20315;-74
2022/08/06 04:11:25;;;;;;;14.85;13.25;;;23.40;99.90;;;;;;5047316;28;20374;-73
2022/08/06 04:14:35;;;;;;;16.13;12.68;;;23.50;99.90;;;;;;5060903;28;20220;-74
2022/08/06 04:17:28;;;;;;;17.88;12.98;;;23.40;99.90;;;;;;5062432;28;20277;-75
2022/08/06 04:20:25;;;;;;;19.83;13.68;;;23.50;99.90;;;;;;5057812;28;20246;-74
2022/08/06 04:23:31;;;;;;;14.30;12.43;;;23.50;99.90;;;;;;5058918;28;20330;-74
2022/08/06 04:26:28;;;;;;;19.88;13.95;;;23.40;99.90;;;;;;5061070;28;20701;-73
2022/08/06 04:29:20;;;;;;;19.98;13.20;;;23.40;99.90;;;;;;5057483;28;20220;-74
2022/08/06 04:32:13;;;;;;;14.57;12.13;;;23.40;99.90;;;;;;5039129;28;20236;-75
2022/08/06 04:35:09;;;;;;;22.80;13.70;;;23.20;99.90;;;;;;5053278;28;20791;-75
2022/08/06 04:38:21;;;;;;;14.10;12.60;;;23.20;99.90;;;;;;5060490;28;20709;-74
2022/08/06 04:41:17;;;;;;;16.88;12.48;;;23.20;99.90;;;;;;5058943;28;20262;-74
2022/08/06 04:44:08;;;;;;;27.60;13.40;;;23.10;99.90;;;;;;5060750;28;20216;-74
2022/08/06 04:47:02;;;;;;;14.07;12.52;;;23.20;99.90;;;;;;5041614;28;20739;-73
2022/08/06 04:49:51;;;;;;;14.20;12.80;;;23.00;99.90;;;;;;5040828;28;20220;-73
2022/08/06 04:52:51;;;;;;;16.10;13.32;;;23.00;99.90;;;;;;5044740;28;20739;-74
2022/08/06 04:55:41;;;;;;;16.60;13.38;;;23.00;99.90;;;;;;5046798;28;20232;-73
2022/08/06 04:58:50;;;;;;;15.98;12.40;;;23.10;99.90;;;;;;5035712;28;20236;-74
2022/08/06 05:01:42;;;;;;;13.57;12.18;;;23.20;99.90;;;;;;5040783;28;20232;-74
2022/08/06 05:04:53;;;;;;;15.35;11.68;;;23.20;99.90;;;;;;5045243;28;20250;-73
2022/08/06 05:07:43;;;;;;;14.32;11.52;;;23.10;99.90;;;;;;5063066;28;20216;-75
2022/08/06 05:10:51;;;;;;;17.23;11.07;;;23.10;99.90;;;;;;5055738;28;20761;-75
2022/08/06 05:13:46;;;;;;;13.15;10.65;;;23.10;99.90;;;;;;5059883;28;20223;-73
2022/08/06 05:16:44;;;;;;;15.30;10.10;;;23.10;99.90;;;;;;5058171;28;20301;-74
2022/08/06 05:19:45;;;;;;;11.52;10.00;;;23.20;99.90;;;;;;5041970;28;20732;-73
2022/08/06 05:22:35;;;;;;;11.10;8.68;;;23.30;99.90;;;;;;5063184;28;20220;-72
2022/08/06 05:25:42;;;;;;;9.75;8.75;;;23.40;99.90;;;;;;5061345;28;20224;-73
2022/08/06 05:28:42;;;;;;;10.65;8.23;;;23.50;99.90;;;;;;5058582;28;20266;-74
2022/08/06 05:31:38;;;;;;;11.13;8.93;;;23.70;99.90;;;;;;5055706;28;20228;-73
2022/08/06 05:34:29;;;;;;;10.18;7.95;;;23.90;99.90;;;;;;5045750;28;20730;-73
2022/08/06 05:37:19;;;;;;;14.43;8.57;;;23.80;99.90;;;;;;5062320;28;20230;-74
2022/08/06 05:40:33;;;;;;;11.07;7.50;;;23.60;99.90;;;;;;5042288;28;20213;-73
2022/08/06 05:43:41;;;;;;;9.65;7.38;;;23.50;99.90;;;;;;5062081;28;20566;-73
2022/08/06 05:46:52;;;;;;;10.23;7.80;;;23.40;99.90;;;;;;5058131;28;20285;-74
2022/08/06 05:49:50;;;;;;;8.07;6.93;;;23.20;99.90;;;;;;5060609;28;20311;-74
2022/08/06 05:52:51;;;;;;;9.25;7.60;;;23.20;99.90;;;;;;5061598;28;20280;-74
2022/08/06 05:55:44;;;;;;;8.07;7.38;;;23.20;99.90;;;;;;5037415;28;20219;-74
2022/08/06 05:58:40;;;;;;;16.38;7.60;;;23.20;99.90;;;;;;5061323;28;20235;-73
2022/08/06 06:01:39;;;;;;;15.50;7.82;;;23.20;99.90;;;;;;5058638;28;20749;-75
2022/08/06 06:04:28;;;;;;;8.18;7.00;;;23.10;99.90;;;;;;5043289;28;20226;-74
2022/08/06 06:07:24;;;;;;;10.13;7.25;;;23.00;99.90;;;;;;5052352;28;20220;-73
2022/08/06 06:10:33;;;;;;;10.77;6.90;;;23.00;99.90;;;;;;5043558;28;20324;-73
2022/08/06 06:13:25;;;;;;;11.63;7.40;;;22.90;99.90;;;;;;5057053;28;20733;-74
2022/08/06 06:16:30;;;;;;;8.82;7.07;;;23.00;99.90;;;;;;5054022;28;20220;-73
2022/08/06 06:19:27;;;;;;;8.82;7.25;;;23.00;99.90;;;;;;5039950;28;20239;-74
2022/08/06 06:22:29;;;;;;;13.45;8.20;;;22.90;99.90;;;;;;5042477;28;20236;-74
2022/08/06 06:25:26;;;;;;;11.73;8.00;;;22.90;99.90;;;;;;5042031;28;20311;-72
2022/08/06 06:28:25;;;;;;;11.13;8.10;;;23.00;99.90;;;;;;5043847;28;20208;-74
2022/08/06 06:31:27;;;;;;;17.42;7.50;;;22.80;99.90;;;;;;5055668;28;20216;-74
2022/08/06 06:34:47;;;;;;;8.27;7.07;;;22.80;99.90;;;;;;5056567;28;20220;-75
2022/08/06 06:37:46;;;;;;;8.57;7.10;;;23.00;99.90;;;;;;5053958;28;20219;-74
2022/08/06 06:40:45;;;;;;;8.68;6.28;;;23.20;99.90;;;;;;5056803;28;20245;-73
2022/08/06 06:43:56;;;;;;;8.18;6.70;;;23.30;99.90;;;;;;5057118;28;20227;-74
2022/08/06 06:46:52;;;;;;;8.20;7.35;;;23.20;99.90;;;;;;5055118;28;20303;-74
2022/08/06 06:49:46;;;;;;;8.18;6.97;;;23.00;99.90;;;;;;5054946;28;20275;-74
2022/08/06 06:52:53;;;;;;;8.40;7.50;;;23.10;99.90;;;;;;5056541;28;20223;-74
2022/08/06 06:55:45;;;;;;;11.23;7.40;;;23.00;99.90;;;;;;5056106;28;20350;-74
2022/08/06 06:58:48;;;;;;;10.48;7.63;;;22.80;99.90;;;;;;5058144;28;20362;-75
2022/08/06 07:01:38;;;;;;;12.50;9.60;;;22.80;99.90;;;;;;5041575;28;21411;-74
2022/08/06 07:04:29;;;;;;;7.60;6.90;;;22.80;99.90;;;;;;5044085;28;20318;-75
2022/08/06 07:07:19;;;;;;;8.82;6.20;;;22.90;99.90;;;;;;5058795;28;20222;-73
2022/08/06 07:10:14;;;;;;;7.47;6.15;;;22.80;99.90;;;;;;5047000;28;20220;-75
2022/08/06 07:13:05;;;;;;;6.57;5.70;;;22.90;99.90;;;;;;5059240;28;20227;-74
2022/08/06 07:16:12;;;;;;;6.15;5.55;;;22.70;99.90;;;;;;5038991;28;20239;-75
2022/08/06 07:19:23;;;;;;;5.32;4.85;;;22.70;99.90;;;;;;5059936;28;20339;-75
2022/08/06 07:22:11;;;;;;;5.82;5.10;;;22.60;99.90;;;;;;5044658;28;20232;-79
2022/08/06 07:25:07;;;;;;;5.38;4.75;;;22.50;99.90;;;;;;5061731;28;20273;-77
2022/08/06 07:28:06;;;;;;;5.60;5.00;;;22.30;99.90;;;;;;5057939;28;20223;-78
2022/08/06 07:31:00;;;;;;;8.73;4.63;;;22.20;99.90;;;;;;5058394;28;20217;-78
2022/08/06 07:33:52;;;;;;;7.85;4.85;;;22.10;99.90;;;;;;5046578;28;20292;-76
2022/08/06 07:36:53;;;;;;;6.18;4.75;;;22.30;99.90;;;;;;5045649;28;20299;-76
2022/08/06 07:39:47;;;;;;;7.72;5.03;;;22.20;99.90;;;;;;5056889;28;20246;-76
2022/08/06 07:42:37;;;;;;;5.22;4.50;;;21.30;99.90;;;;;;5059309;28;20228;-76
2022/08/06 07:45:32;;;;;;;6.88;4.57;;;21.20;99.90;;;;;;5059803;28;20231;-76
2022/08/06 07:48:46;;;;;;;6.75;4.97;;;21.20;99.90;;;;;;5059396;28;20228;-75
2022/08/06 07:51:44;;;;;;;5.60;4.78;;;21.30;99.90;;;;;;5057006;28;20236;-76
2022/08/06 07:54:33;;;;;;;6.13;4.07;;;21.40;99.90;;;;;;5063264;28;20244;-77
2022/08/06 07:57:27;;;;;;;5.18;3.97;;;21.50;99.90;;;;;;5062038;28;20228;-76
2022/08/06 08:00:39;;;;;;;6.22;5.18;;;21.40;99.90;;;;;;5057840;28;20227;-75
2022/08/06 08:06:47;;;;;;;6.75;5.57;;;21.40;99.90;;;;;;5064980;28;20211;-76
2022/08/06 08:09:37;;;;;;;8.15;7.10;;;21.40;99.90;;;;;;5056941;28;20220;-76
2022/08/06 08:12:47;;;;;;;8.30;7.30;;;;;;;;;;5044944;28;20252;-77
2022/08/06 08:15:42;;;;;;;7.30;6.60;;;21.30;99.90;;;;;;5060179;28;20589;-77
2022/08/06 08:18:33;;;;;;;5.85;5.13;;;21.20;99.90;;;;;;5059753;28;20351;-76
2022/08/06 08:21:22;;;;;;;5.57;4.60;;;;;;;;;;5060640;28;20235;-77
2022/08/06 08:24:11;;;;;;;10.82;4.80;;;21.30;99.90;;;;;;5046968;28;20306;-77
2022/08/06 08:27:08;;;;;;;8.07;3.30;;;21.30;99.90;;;;;;5043474;28;20601;-78
2022/08/06 08:30:11;;;;;;;4.78;3.30;;;21.20;99.90;;;;;;5062114;28;20566;-77
2022/08/06 08:33:05;;;;;;;3.72;3.05;;;20.70;99.90;;;;;;5060536;28;20747;-76
2022/08/06 08:36:04;;;;;;;2.90;2.70;;;20.80;99.90;;;;;;5051108;28;20295;-75
2022/08/06 08:38:56;;;;;;;4.68;3.28;;;20.80;99.90;;;;;;5043375;28;20220;-77
2022/08/06 08:41:49;;;;;;;3.92;3.58;;;20.80;99.90;;;;;;5035595;28;20235;-76
2022/08/06 08:44:39;;;;;;;6.35;4.70;;;20.80;99.90;;;;;;5061067;28;20231;-76
2022/08/06 08:47:30;;;;;;;5.47;4.03;;;20.90;99.90;;;;;;5056989;28;20370;-84
2022/08/06 08:50:43;;;;;;;5.65;2.72;;;21.10;99.90;;;;;;5066835;28;20220;-86
2022/08/06 08:53:37;;;;;;;4.72;2.90;;;21.00;99.90;;;;;;5068963;28;20679;-86
2022/08/06 08:56:34;;;;;;;18.00;5.40;;;21.00;99.90;;;;;;5052372;28;20219;-87
2022/08/06 08:59:43;;;;;;;6.38;3.53;;;21.10;99.90;;;;;;5052056;28;20369;-85
2022/08/06 09:02:47;;;;;;;6.38;3.20;;;21.00;99.90;;;;;;5049221;28;20272;-85
2022/08/06 09:05:40;;;;;;;4.72;2.85;;;20.80;99.90;;;;;;5043457;28;20216;-79
2022/08/06 09:08:36;;;;;;;7.57;3.03;;;20.80;99.90;;;;;;5062047;28;20227;-85
2022/08/06 09:11:46;;;;;;;6.70;2.90;;;20.70;99.90;;;;;;5049486;28;20216;-85
2022/08/06 09:15:20;;;;;;;5.30;2.92;;;20.70;99.90;;;;;;5062744;28;20249;-85
2022/08/06 09:18:13;;;;;;;3.85;2.42;;;20.70;99.90;;;;;;5074774;28;20251;-82
2022/08/06 09:21:16;;;;;;;4.55;2.85;;;20.70;99.90;;;;;;5077867;28;20225;-90
2022/08/06 09:24:09;;;;;;;3.25;2.50;;;20.70;99.90;;;;;;5071472;28;20327;-86
2022/08/06 09:27:09;;;;;;;3.95;2.50;;;20.50;99.90;;;;;;5055416;28;20250;-81
2022/08/06 09:30:18;;;;;;;3.47;3.10;;;20.50;99.90;;;;;;5062195;28;20223;-84
2022/08/06 09:33:18;;;;;;;5.45;3.45;;;20.50;99.90;;;;;;5054873;28;20217;-83
2022/08/06 09:36:28;;;;;;;3.92;3.38;;;20.60;99.90;;;;;;5059210;28;20228;-83
2022/08/06 09:39:31;;;;;;;5.18;3.47;;;20.30;99.90;;;;;;5045384;28;20224;-82
2022/08/06 09:42:41;;;;;;;4.78;4.10;;;20.30;99.90;;;;;;5053567;28;20867;-83
2022/08/06 09:45:30;;;;;;;5.75;3.80;;;20.40;99.90;;;;;;5045624;28;20215;-82
2022/08/06 09:48:30;;;;;;;7.90;3.53;;;20.20;99.90;;;;;;5029296;28;20290;-82
2022/08/06 09:51:22;;;;;;;6.00;3.50;;;20.10;99.90;;;;;;5028907;28;20722;-81
2022/08/06 09:54:38;;;;;;;7.15;3.83;;;20.10;99.90;;;;;;5028218;28;20222;-82
2022/08/06 09:57:41;;;;;;;6.47;4.10;;;20.20;99.90;;;;;;5020007;28;20282;-83
2022/08/06 10:00:31;;;;;;;6.47;3.95;;;20.30;99.90;;;;;;5028205;28;20221;-84
2022/08/06 10:03:21;;;;;;;5.57;3.42;;;20.30;99.90;;;;;;5020178;28;20784;-84
2022/08/06 10:06:29;;;;;;;4.55;3.30;;;20.10;99.90;;;;;;5030470;28;20217;-82
2022/08/06 10:09:18;;;;;;;4.28;3.17;;;20.30;99.90;;;;;;5018886;28;20252;-85
2022/08/06 10:12:29;;;;;;;13.55;3.30;;;20.20;99.90;;;;;;5014486;28;20221;-85
2022/08/06 10:15:29;;;;;;;5.35;3.10;;;20.10;99.90;;;;;;5014581;28;20225;-85
2022/08/06 10:18:41;;;;;;;4.28;2.88;;;20.20;99.90;;;;;;5030216;28;20217;-85
2022/08/06 10:21:46;;;;;;;5.85;3.22;;;20.10;99.90;;;;;;5032564;28;20840;-84
2022/08/06 10:24:40;;;;;;;4.57;3.35;;;20.40;99.90;;;;;;5021394;28;20213;-84
2022/08/06 10:27:38;;;;;;;5.38;3.17;;;20.40;99.90;;;;;;5013256;28;20325;-83
2022/08/06 10:30:29;;;;;;;5.20;2.97;;;20.30;99.90;;;;;;5021153;28;20234;-84
2022/08/06 10:33:25;;;;;;;4.28;2.65;;;20.30;99.90;;;;;;5031876;28;20225;-83
2022/08/06 10:36:25;;;;;;;5.13;2.85;;;20.00;99.90;;;;;;5019242;28;20696;-83
2022/08/06 10:39:26;;;;;;;4.50;2.80;;;20.10;99.90;;;;;;5019302;28;20221;-83
2022/08/06 10:42:35;;;;;;;14.75;10.05;;;20.20;99.90;;;;;;5020540;28;20308;-82
2022/08/06 10:45:26;;;;;;;6.03;3.55;;;20.10;99.90;;;;;;5019366;28;20221;-83
2022/08/06 10:48:36;;;;;;;5.97;3.58;;;20.20;99.90;;;;;;5016652;28;20232;-80
2022/08/06 10:51:46;;;;;;;5.68;3.28;;;20.10;99.90;;;;;;5018769;28;20248;-80
2022/08/06 10:54:46;;;;;;;5.38;3.17;;;20.10;99.90;;;;;;5019219;28;20820;-81
2022/08/06 10:57:40;;;;;;;5.88;2.78;;;19.90;99.90;;;;;;5023856;28;20237;-83
2022/08/06 11:00:34;;;;;;;3.35;2.63;;;19.80;99.90;;;;;;5022879;28;20244;-80
2022/08/06 11:03:29;;;;;;;7.18;3.03;;;19.90;99.90;;;;;;5022107;28;20788;-83
2022/08/06 11:06:52;;;;;;;6.95;3.38;;;19.80;99.90;;;;;;5023624;28;20220;-79
2022/08/06 11:09:58;;;;;;;5.82;3.08;;;19.90;99.90;;;;;;5021421;28;20225;-81
2022/08/06 11:12:54;;;;;;;5.30;2.95;;;19.80;99.90;;;;;;5025361;28;20330;-79
2022/08/06 11:15:44;;;;;;;3.85;2.63;;;19.80;99.90;;;;;;5021862;28;20217;-82
2022/08/06 11:18:33;;;;;;;5.30;2.50;;;19.90;99.90;;;;;;5035727;28;20687;-82
2022/08/06 11:21:37;;;;;;;3.95;2.97;;;19.90;99.90;;;;;;5033472;28;20233;-81
2022/08/06 11:24:52;;;;;;;3.45;2.40;;;20.00;99.90;;;;;;5032830;28;20220;-77
2022/08/06 11:27:52;;;;;;;4.75;2.40;;;20.00;99.90;;;;;;5034100;28;20312;-82
2022/08/06 11:30:56;;;;;;;4.15;1.95;;;19.90;99.90;;;;;;5033318;28;20226;-81
2022/08/06 11:34:03;;;;;;;3.10;1.90;;;19.70;99.90;;;;;;5025674;28;20237;-82
2022/08/06 11:36:56;;;;;;;4.18;2.20;;;19.50;99.90;;;;;;5028024;28;20268;-82
2022/08/06 11:40:06;;;;;;;4.53;2.38;;;19.50;99.90;;;;;;5029201;28;20218;-82
2022/08/06 11:42:55;;;;;;;3.85;2.20;;;19.60;99.90;;;;;;5047083;28;20221;-80
2022/08/06 11:46:17;;;;;;;3.28;2.90;;;19.70;99.90;;;;;;5034481;28;20231;-80
2022/08/06 11:49:36;;;;;;;3.83;2.85;;;19.70;99.90;;;;;;5053572;28;20350;-75
2022/08/06 11:52:42;;;;;;;2.80;2.42;;;19.70;99.90;;;;;;5045500;28;20232;-77
2022/08/06 11:55:31;;;;;;;3.55;2.10;;;19.60;99.90;;;;;;5045176;28;20934;-78
2022/08/06 11:58:26;;;;;;;3.97;2.15;;;19.60;99.90;;;;;;5063351;28;20649;-72
2022/08/06 12:01:17;;;;;;;5.60;1.98;;;19.50;99.90;;;;;;5061334;28;20235;-71
2022/08/06 12:04:44;;;;;;;4.38;2.30;;;19.50;99.90;;;;;;5062491;28;20254;-72
2022/08/06 12:07:36;;;;;;;5.32;2.38;;;19.60;99.90;;;;;;5059187;28;20401;-71
2022/08/06 12:10:38;;;;;;;4.18;1.70;;;19.50;99.90;;;;;;5041543;28;20344;-72
2022/08/06 12:13:39;;;;;;;3.72;1.80;;;19.30;99.90;;;;;;5055235;28;20713;-75
2022/08/06 12:16:44;;;;;;;5.43;2.08;;;19.50;99.90;;;;;;5043610;28;20849;-71
2022/08/06 12:19:48;;;;;;;3.17;1.70;;;19.50;99.90;;;;;;5058560;28;21021;-72
2022/08/06 12:22:51;;;;;;;3.03;1.92;;;19.20;99.90;;;;;;5061492;28;20220;-72
2022/08/06 12:25:43;;;;;;;3.03;1.80;;;19.30;99.90;;;;;;5047358;28;20228;-71
2022/08/06 12:28:34;;;;;;;5.25;2.22;;;19.30;99.90;;;;;;5064353;28;20232;-71
2022/08/06 12:31:32;;;;;;;5.30;2.13;;;19.20;99.90;;;;;;5060240;28;20220;-71
2022/08/06 12:34:31;;;;;;;5.40;2.00;;;19.50;99.90;;;;;;5058259;28;20905;-72
2022/08/06 12:37:21;;;;;;;5.50;2.00;;;19.40;99.90;;;;;;5057445;28;20232;-72
2022/08/06 12:40:26;;;;;;;5.70;1.90;;;19.50;99.90;;;;;;5060520;28;20220;-72
2022/08/06 12:43:15;;;;;;;4.78;2.33;;;19.50;99.90;;;;;;5055945;28;20231;-73
2022/08/06 12:46:25;;;;;;;6.05;2.25;;;19.60;99.90;;;;;;5055380;28;20427;-72
2022/08/06 12:49:29;;;;;;;4.47;2.10;;;19.40;99.90;;;;;;5058221;28;20341;-72
2022/08/06 12:52:31;;;;;;;4.70;2.53;;;19.50;99.90;;;;;;5058546;28;20239;-72
2022/08/06 12:55:20;;;;;;;4.38;2.75;;;19.60;99.90;;;;;;5043601;28;20212;-72
2022/08/06 12:58:11;;;;;;;3.20;2.30;;;19.70;99.90;;;;;;5044827;28;20219;-72
2022/08/06 13:01:16;;;;;;;5.25;2.45;;;19.70;99.90;;;;;;5058384;28;20262;-73
2022/08/06 13:04:26;;;;;;;4.72;2.60;;;19.90;99.90;;;;;;5044646;28;20220;-73
2022/08/06 13:07:20;;;;;;;4.85;2.63;;;19.90;99.90;;;;;;5039437;28;20224;-72
2022/08/06 13:10:11;;;;;;;5.00;2.72;;;20.10;99.90;;;;;;5052613;28;20586;-73
2022/08/06 13:13:21;;;;;;;4.80;2.40;;;20.30;99.90;;;;;;5056553;28;20224;-73
2022/08/06 13:16:42;;;;;;;3.80;2.50;;;20.00;99.90;;;;;;5058283;28;20223;-72
2022/08/06 13:19:52;;;;;;;6.47;2.75;;;20.10;99.90;;;;;;5059956;28;20655;-72
2022/08/06 13:22:51;;;;;;;4.88;2.58;;;20.50;99.90;;;;;;5059742;28;20224;-72
2022/08/06 13:25:44;;;;;;;5.63;2.60;;;20.40;99.90;;;;;;5058528;28;20233;-72
2022/08/06 13:28:40;;;;;;;6.38;3.10;;;20.70;99.90;;;;;;5042502;28;20254;-72
2022/08/06 13:32:00;;;;;;;5.43;2.38;;;21.10;99.90;;;;;;5043242;28;20221;-71
2022/08/06 13:34:54;;;;;;;4.70;2.20;;;21.20;99.90;;;;;;5042143;28;20220;-72
2022/08/06 13:37:46;;;;;;;7.13;2.28;;;21.10;99.90;;;;;;5059374;28;20292;-72
2022/08/06 13:40:56;;;;;;;5.40;2.05;;;20.90;99.90;;;;;;5040802;28;20230;-71
2022/08/06 13:43:51;;;;;;;4.40;1.92;;;20.70;99.90;;;;;;5060318;28;20592;-72
2022/08/06 13:46:44;;;;;;;5.45;1.85;;;20.70;99.90;;;;;;5055025;28;20251;-73
2022/08/06 13:49:39;;;;;;;6.13;2.00;;;20.80;99.90;;;;;;5057928;28;20898;-73
2022/08/06 13:52:27;;;;;;;3.58;1.90;;;20.80;99.90;;;;;;5061164;28;20228;-72
2022/08/06 13:55:23;;;;;;;5.28;2.00;;;20.90;99.90;;;;;;5055462;28;20232;-71
2022/08/06 13:58:17;;;;;;;4.03;1.77;;;20.90;99.90;;;;;;5057738;28;20239;-73
2022/08/06 14:01:11;;;;;;;5.65;1.90;;;20.90;99.90;;;;;;5058629;28;20708;-71
2022/08/06 14:04:02;;;;;;;3.90;1.73;;;20.90;99.90;;;;;;5058379;28;20346;-73
2022/08/06 14:06:52;;;;;;;4.63;2.08;;;20.90;99.90;;;;;;5053853;28;20227;-72
2022/08/06 14:09:41;;;;;;;4.30;1.70;;;20.80;99.90;;;;;;5057259;28;20212;-71
2022/08/06 14:15:54;;;;;;;3.83;1.60;;;20.80;99.90;;;;;;5061098;28;20230;-72
2022/08/06 14:18:42;;;;;;;5.95;1.60;;;20.90;99.90;;;;;;5055067;28;20215;-72
2022/08/06 14:21:48;;;;;;;3.53;1.85;;;20.80;99.90;;;;;;5044727;28;20782;-71
2022/08/06 14:24:37;;;;;;;3.60;1.60;;;20.80;99.90;;;;;;5054184;28;20216;-72
2022/08/06 14:27:27;;;;;;;5.25;1.98;;;21.00;99.90;;;;;;5057280;28;20696;-73
2022/08/06 14:30:31;;;;;;;4.70;1.80;;;21.00;99.90;;;;;;5043059;28;20231;-72
2022/08/06 14:33:23;;;;;;;11.65;2.63;;;20.90;99.90;;;;;;5058334;28;20228;-72
2022/08/06 14:36:23;;;;;;;7.25;1.60;;;20.80;99.90;;;;;;5044991;28;20280;-71
2022/08/06 14:39:15;;;;;;;4.90;1.65;;;20.90;99.90;;;;;;5053112;28;20231;-71
2022/08/06 14:45:34;;;;;;;4.90;1.65;;;20.70;99.90;;;;;;5064159;28;20227;-72
2022/08/06 14:48:28;;;;;;;6.70;2.08;;;20.60;99.90;;;;;;5046946;28;20232;-72
2022/08/06 14:51:18;;;;;;;4.45;2.17;;;20.60;99.90;;;;;;5040345;28;20223;-72
2022/08/06 14:54:11;;;;;;;5.10;1.73;;;20.50;99.90;;;;;;5056753;28;21857;-72
2022/08/06 14:57:03;;;;;;;6.85;2.10;;;20.40;99.90;;;;;;5049086;28;20224;-71
2022/08/06 15:00:04;;;;;;;8.32;2.50;;;20.30;99.90;;;;;;5058486;28;20234;-73
2022/08/06 15:02:53;;;;;;;13.85;2.33;;;20.30;99.90;;;;;;5061293;28;20719;-72
2022/08/06 15:05:44;;;;;;;11.43;2.60;;;20.10;99.90;;;;;;5059823;28;20777;-69
2022/08/06 15:08:53;;;;;;;7.80;2.10;;;20.10;99.90;;;;;;5047118;28;20219;-69
2022/08/06 15:11:42;;;;;;;6.97;1.67;;;20.20;99.90;;;;;;5059969;28;20243;-71
2022/08/06 15:14:49;;;;;;;4.95;1.60;;;20.30;99.90;;;;;;5044537;28;20400;-72
2022/08/06 15:17:38;;;;;;;2.55;1.42;;;20.50;99.90;;;;;;5044209;28;20224;-72
2022/08/06 15:20:48;;;;;;;3.53;1.73;;;20.50;99.90;;;;;;5056864;28;20907;-72
2022/08/06 15:23:38;;;;;;;4.55;1.63;;;20.60;99.90;;;;;;5058873;28;20224;-71
2022/08/06 15:26:42;;;;;;;2.55;1.23;;;20.80;99.90;;;;;;5057687;28;20599;-71
2022/08/06 15:29:36;;;;;;;4.70;1.65;;;20.70;99.90;;;;;;5056164;28;20312;-72
2022/08/06 15:32:29;;;;;;;5.22;1.50;;;20.80;99.90;;;;;;5041957;28;20238;-72